createdAt,value
2024-02-07T00:02:48.516Z,97058.97
2024-02-07T00:05:59.422Z,97059.19
2024-02-07T00:09:07.553Z,97053.00
2024-02-07T00:12:14.858Z,97034.88
2024-02-07T00:15:23.624Z,97034.53
2024-02-07T00:18:30.737Z,97041.56
2024-02-07T00:21:42.102Z,97029.38
2024-02-07T00:24:49.092Z,97004.25
2024-02-07T00:27:56.752Z,97049.91
2024-02-07T00:31:07.492Z,97045.63
2024-02-07T00:34:16.954Z,97038.47
2024-02-07T00:37:29.180Z,97031.78
2024-02-07T00:40:52.708Z,97031.53
2024-02-07T00:44:18.588Z,97025.13
2024-02-07T00:47:34.509Z,97029.91
2024-02-07T00:50:47.914Z,97025.84
2024-02-07T00:53:59.846Z,97003.78
2024-02-07T00:57:13.884Z,96998.88
2024-02-07T01:00:25.786Z,96992.81
2024-02-07T01:03:33.396Z,97019.75
2024-02-07T01:06:43.233Z,97004.97
2024-02-07T01:09:56.414Z,97010.81
2024-02-07T01:13:04.519Z,96985.75
2024-02-07T01:16:12.462Z,96987.81
2024-02-07T01:19:22.907Z,96971.75
2024-02-07T01:22:31.102Z,96982.44
2024-02-07T01:25:44.305Z,96977.59
2024-02-07T01:28:52.843Z,96972.47
2024-02-07T01:32:06.194Z,96976.53
2024-02-07T01:35:19.084Z,96985.69
2024-02-07T01:38:28.077Z,96974.00
2024-02-07T01:41:51.138Z,96984.88
2024-02-07T01:45:33.860Z,96956.50
2024-02-07T01:48:47.267Z,96962.22
2024-02-07T01:51:57.040Z,96958.38
2024-02-07T01:55:15.557Z,96959.97
2024-02-07T01:58:35.003Z,96941.72
2024-02-07T02:01:44.678Z,96953.88
2024-02-07T02:04:54.924Z,96935.31
2024-02-07T02:08:04.507Z,96945.31
2024-02-07T02:11:20.774Z,96931.47
2024-02-07T02:14:34.505Z,96933.84
2024-02-07T02:17:48.774Z,96933.84
2024-02-07T02:21:02.781Z,96919.56
2024-02-07T02:24:50.904Z,96917.44
2024-02-07T02:28:25.636Z,96917.56
2024-02-07T02:31:42.283Z,96908.75
2024-02-07T02:34:54.285Z,96908.38
2024-02-07T02:38:04.213Z,96902.44
2024-02-07T02:41:16.361Z,96896.00
2024-02-07T02:44:25.101Z,96866.22
2024-02-07T02:47:35.884Z,96882.56
2024-02-07T02:50:43.985Z,96796.56
2024-02-07T02:53:54.283Z,96895.28
2024-02-07T02:57:03.676Z,96881.22
2024-02-07T03:00:16.254Z,96869.09
2024-02-07T03:03:26.171Z,96853.84
2024-02-07T03:06:52.572Z,96854.59
2024-02-07T03:09:59.873Z,96861.00
2024-02-07T03:13:08.371Z,96851.13
2024-02-07T03:16:17.016Z,96863.38
2024-02-07T03:19:32.873Z,96856.75
2024-02-07T03:22:40.838Z,96852.81
2024-02-07T03:25:58.256Z,96858.91
2024-02-07T03:29:05.841Z,96838.41
2024-02-07T03:32:14.075Z,96833.88
2024-02-07T03:35:23.270Z,96833.66
2024-02-07T03:38:31.953Z,96847.72
2024-02-07T03:41:42.930Z,96837.84
2024-02-07T03:45:01.242Z,96852.72
2024-02-07T03:48:14.231Z,96844.16
2024-02-07T03:51:28.951Z,96846.75
2024-02-07T03:54:37.332Z,96845.81
2024-02-07T03:57:46.253Z,96841.50
2024-02-07T04:00:54.950Z,96832.97
2024-02-07T04:04:10.798Z,96831.97
2024-02-07T04:07:23.475Z,96842.09
2024-02-07T04:10:44.562Z,96835.09
2024-02-07T04:13:51.377Z,96839.38
2024-02-07T04:17:14.960Z,96833.19
2024-02-07T04:20:34.969Z,96826.06
2024-02-07T04:23:59.722Z,96819.38
2024-02-07T04:27:22.346Z,96826.28
2024-02-07T04:30:43.687Z,96818.22
2024-02-07T04:34:07.121Z,96809.25
2024-02-07T04:37:31.575Z,96805.59
2024-02-07T04:40:54.729Z,96799.59
2024-02-07T04:44:15.966Z,96800.56
2024-02-07T04:47:36.541Z,96790.09
2024-02-07T04:51:00.899Z,96798.66
2024-02-07T04:54:23.367Z,96792.50
2024-02-07T04:57:47.225Z,96787.72
2024-02-07T05:01:07.763Z,96784.31
2024-02-07T05:04:31.782Z,96786.06
2024-02-07T05:07:54.669Z,96783.78
2024-02-07T05:11:15.572Z,96753.94
2024-02-07T05:14:38.317Z,96764.16
2024-02-07T05:17:47.811Z,96763.69
2024-02-07T05:20:55.563Z,96748.81
2024-02-07T05:24:12.560Z,96732.03
2024-02-07T05:27:20.420Z,96755.84
2024-02-07T05:30:32.240Z,96743.91
2024-02-07T05:33:41.597Z,96746.31
2024-02-07T05:36:51.449Z,96757.38
2024-02-07T05:39:59.669Z,96746.06
2024-02-07T05:43:10.149Z,96750.47
2024-02-07T05:46:20.083Z,96752.75
2024-02-07T05:49:27.629Z,96750.84
2024-02-07T05:52:34.710Z,96749.19
2024-02-07T05:55:44.844Z,96748.00
2024-02-07T05:58:53.001Z,96732.91
2024-02-07T06:02:04.100Z,96734.66
2024-02-07T06:05:12.381Z,96738.84
2024-02-07T06:08:24.389Z,96741.34
2024-02-07T06:11:43.395Z,96726.72
2024-02-07T06:14:52.879Z,96733.50
2024-02-07T06:18:07.394Z,96737.78
2024-02-07T06:21:18.898Z,96739.22
2024-02-07T06:24:26.966Z,96726.13
2024-02-07T06:27:35.561Z,96742.41
2024-02-07T06:30:42.786Z,96742.28
2024-02-07T06:33:54.433Z,96753.31
2024-02-07T06:37:02.092Z,96737.50
2024-02-07T06:40:12.748Z,96729.19
2024-02-07T06:43:20.015Z,96730.59
2024-02-07T06:46:27.963Z,96728.31
2024-02-07T06:49:41.807Z,96720.78
2024-02-07T06:52:50.844Z,96715.94
2024-02-07T06:56:00.263Z,96742.69
2024-02-07T06:59:13.066Z,96735.56
2024-02-07T07:02:37.491Z,96729.97
2024-02-07T07:05:59.393Z,96738.28
2024-02-07T07:09:07.070Z,96708.41
2024-02-07T07:12:15.152Z,96685.59
2024-02-07T07:15:30.607Z,96721.31
2024-02-07T07:18:41.649Z,96740.13
2024-02-07T07:21:51.543Z,96731.28
2024-02-07T07:24:59.406Z,96736.59
2024-02-07T07:28:06.830Z,96723.00
2024-02-07T07:31:15.213Z,96723.00
2024-02-07T07:34:28.772Z,96719.94
2024-02-07T07:37:39.597Z,96729.56
2024-02-07T07:40:46.931Z,96733.25
2024-02-07T07:43:55.131Z,96722.53
2024-02-07T07:47:03.020Z,96713.50
2024-02-07T07:50:15.538Z,96735.16
2024-02-07T07:53:25.626Z,96730.41
2024-02-07T07:56:34.695Z,96713.28
2024-02-07T07:59:45.207Z,96718.28
2024-02-07T08:02:53.787Z,96708.41
2024-02-07T08:06:01.812Z,96710.66
2024-02-07T08:09:12.748Z,96726.13
2024-02-07T08:12:20.360Z,96695.22
2024-02-07T08:15:28.055Z,96705.69
2024-02-07T08:18:36.806Z,96708.53
2024-02-07T08:21:47.622Z,96694.25
2024-02-07T08:25:13.523Z,96711.50
2024-02-07T08:28:21.594Z,96710.44
2024-02-07T08:31:29.428Z,96702.81
2024-02-07T08:34:37.785Z,96697.53
2024-02-07T08:37:45.557Z,96705.28
2024-02-07T08:40:56.417Z,96708.25
2024-02-07T08:44:04.336Z,96707.78
2024-02-07T08:47:12.367Z,96699.69
2024-02-07T08:50:20.512Z,96688.00
2024-02-07T08:53:31.050Z,96678.75
2024-02-07T08:56:40.867Z,96684.31
2024-02-07T08:59:49.176Z,96670.16
2024-02-07T09:02:56.515Z,96663.28
2024-02-07T09:06:04.787Z,96666.13
2024-02-07T09:09:11.988Z,96687.91
2024-02-07T09:12:22.393Z,96680.91
2024-02-07T09:15:29.042Z,96686.09
2024-02-07T09:18:38.477Z,96678.59
2024-02-07T09:21:45.281Z,96675.13
2024-02-07T09:24:53.056Z,96668.22
2024-02-07T09:28:02.634Z,96671.94
2024-02-07T09:31:11.617Z,96671.31
2024-02-07T09:34:21.084Z,96686.06
2024-02-07T09:37:29.119Z,96681.38
2024-02-07T09:40:36.526Z,96691.84
2024-02-07T09:43:51.735Z,96682.06
2024-02-07T09:47:04.216Z,96697.53
2024-02-07T09:50:15.138Z,96675.63
2024-02-07T09:53:25.380Z,96676.47
2024-02-07T09:56:36.286Z,96583.25
2024-02-07T09:59:48.074Z,96666.22
2024-02-07T10:06:17.454Z,96674.44
2024-02-07T10:09:26.804Z,96670.84
2024-02-07T10:12:35.135Z,96680.63
2024-02-07T10:15:50.517Z,96695.38
2024-02-07T10:18:58.860Z,96668.44
2024-02-07T10:22:30.035Z,96681.31
2024-02-07T10:25:38.253Z,96658.50
2024-02-07T10:28:50.476Z,96654.16
2024-02-07T10:32:01.567Z,96647.00
2024-02-07T10:35:14.346Z,96636.09
2024-02-07T10:38:30.809Z,96626.00
2024-02-07T10:41:42.217Z,96644.59
2024-02-07T10:44:52.429Z,96646.78
2024-02-07T10:48:06.190Z,96629.72
2024-02-07T10:51:15.344Z,96606.50
2024-02-07T10:54:23.325Z,96629.13
2024-02-07T10:57:36.916Z,96630.06
2024-02-07T11:00:46.329Z,96605.09
2024-02-07T11:03:56.884Z,96627.41
2024-02-07T11:07:05.889Z,96638.72
2024-02-07T11:10:17.766Z,96626.41
2024-02-07T11:13:27.542Z,96626.50
2024-02-07T11:16:35.089Z,96609.63
2024-02-07T11:19:47.333Z,96637.22
2024-02-07T11:22:58.515Z,96614.84
2024-02-07T11:26:09.152Z,96612.91
2024-02-07T11:29:17.498Z,96619.53
2024-02-07T11:32:29.675Z,96616.72
2024-02-07T11:35:43.603Z,96601.59
2024-02-07T11:38:57.907Z,96608.97
2024-02-07T11:42:05.371Z,96601.97
2024-02-07T11:45:19.480Z,96575.53
2024-02-07T11:48:32.780Z,96623.13
2024-02-07T11:51:46.330Z,96613.31
2024-02-07T11:54:54.899Z,96599.78
2024-02-07T11:58:14.036Z,96608.84
2024-02-07T12:01:31.673Z,96611.53
2024-02-07T12:04:46.947Z,96619.44
2024-02-07T12:07:59.870Z,96610.03
2024-02-07T12:11:11.231Z,96605.91
2024-02-07T12:14:19.289Z,96602.41
2024-02-07T12:17:27.187Z,96603.81
2024-02-07T12:20:35.356Z,96598.72
2024-02-07T12:23:45.760Z,96605.47
2024-02-07T12:26:52.619Z,96592.50
2024-02-07T12:30:03.326Z,96458.41
2024-02-07T12:33:12.636Z,96616.13
2024-02-07T12:36:21.569Z,96610.69
2024-02-07T12:39:32.772Z,96582.34
2024-02-07T12:42:41.407Z,96602.38
2024-02-07T12:45:57.025Z,96606.56
2024-02-07T12:49:05.228Z,96608.63
2024-02-07T12:52:15.676Z,96613.47
2024-02-07T12:55:27.790Z,96616.50
2024-02-07T12:59:05.586Z,96611.66
2024-02-07T13:02:19.632Z,96613.59
2024-02-07T13:05:31.368Z,96634.81
2024-02-07T13:08:39.344Z,96640.25
2024-02-07T13:11:52.244Z,96628.09
2024-02-07T13:15:02.749Z,96612.13
2024-02-07T13:18:11.045Z,96638.78
2024-02-07T13:21:22.285Z,96675.41
2024-02-07T13:24:31.387Z,96715.50
2024-02-07T13:27:46.002Z,96740.28
2024-02-07T13:30:58.546Z,96755.13
2024-02-07T13:34:07.634Z,96743.81
2024-02-07T13:37:15.681Z,96783.00
2024-02-07T13:40:30.140Z,96781.72
2024-02-07T13:43:40.745Z,96788.84
2024-02-07T13:46:49.728Z,96784.84
2024-02-07T13:49:57.350Z,96787.25
2024-02-07T13:53:11.871Z,96778.59
2024-02-07T13:56:19.549Z,96790.41
2024-02-07T13:59:31.918Z,96776.22
2024-02-07T14:02:38.645Z,96799.34
2024-02-07T14:05:46.259Z,96788.31
2024-02-07T14:08:57.144Z,96801.41
2024-02-07T14:12:11.090Z,96781.19
2024-02-07T14:15:34.621Z,96805.44
2024-02-07T14:18:46.458Z,96797.00
2024-02-07T14:21:53.507Z,96797.00
2024-02-07T14:25:01.540Z,96799.50
2024-02-07T14:28:11.772Z,96817.06
2024-02-07T14:31:23.899Z,96821.81
2024-02-07T14:34:31.378Z,96804.94
2024-02-07T14:37:42.717Z,96802.94
2024-02-07T14:40:51.306Z,96801.47
2024-02-07T14:44:05.111Z,96815.59
2024-02-07T14:47:19.309Z,96824.13
2024-02-07T14:50:28.678Z,96828.34
2024-02-07T14:53:39.297Z,96817.00
2024-02-07T14:56:48.620Z,96849.59
2024-02-07T14:59:57.259Z,96841.63
2024-02-07T15:03:12.808Z,96825.75
2024-02-07T15:06:28.082Z,96830.66
2024-02-07T15:09:40.498Z,96843.38
2024-02-07T15:12:53.804Z,96852.94
2024-02-07T15:16:05.794Z,96842.47
2024-02-07T15:19:26.665Z,96843.31
2024-02-07T15:22:38.508Z,96862.59
2024-02-07T15:25:55.502Z,96860.38
2024-02-07T15:29:05.412Z,96870.84
2024-02-07T15:32:20.016Z,96861.97
2024-02-07T15:35:35.054Z,96870.56
2024-02-07T15:38:43.801Z,96852.00
2024-02-07T15:41:58.116Z,96856.63
2024-02-07T15:45:08.817Z,96863.94
2024-02-07T15:48:21.346Z,96860.13
2024-02-07T15:51:34.634Z,96858.38
2024-02-07T15:54:42.465Z,96872.56
2024-02-07T15:57:51.870Z,96871.75
2024-02-07T16:01:03.912Z,96873.31
2024-02-07T16:04:14.437Z,96880.75
2024-02-07T16:07:25.613Z,96884.53
2024-02-07T16:10:33.383Z,96886.22
2024-02-07T16:13:41.508Z,96887.56
2024-02-07T16:16:48.788Z,96912.13
2024-02-07T16:19:59.330Z,96918.19
2024-02-07T16:23:19.455Z,96925.97
2024-02-07T16:26:37.466Z,96925.03
2024-02-07T16:29:52.733Z,96912.00
2024-02-07T16:33:10.193Z,96929.94
2024-02-07T16:36:18.871Z,96941.97
2024-02-07T16:39:31.418Z,96946.34
2024-02-07T16:42:40.739Z,96952.28
2024-02-07T16:45:59.596Z,96961.13
2024-02-07T16:49:14.319Z,96954.19
2024-02-07T16:52:27.832Z,96948.38
2024-02-07T16:55:45.575Z,96936.63
2024-02-07T16:59:01.316Z,96954.28
2024-02-07T17:02:10.852Z,96957.53
2024-02-07T17:05:19.796Z,96944.56
2024-02-07T17:08:32.769Z,96939.75
2024-02-07T17:11:46.260Z,96961.97
2024-02-07T17:14:56.591Z,96953.44
2024-02-07T17:18:11.960Z,96947.91
2024-02-07T17:21:24.938Z,96950.09
2024-02-07T17:24:36.554Z,96933.63
2024-02-07T17:27:48.212Z,96943.41
2024-02-07T17:31:00.948Z,96939.19
2024-02-07T17:34:16.672Z,96952.50
2024-02-07T17:37:31.558Z,96950.75
2024-02-07T17:40:59.001Z,96945.16
2024-02-07T17:44:21.712Z,96954.75
2024-02-07T17:47:35.799Z,96956.34
2024-02-07T17:51:00.004Z,96966.81
2024-02-07T17:54:21.657Z,96954.13
2024-02-07T17:57:33.354Z,96952.38
2024-02-07T18:00:53.441Z,96959.41
2024-02-07T18:04:04.171Z,96960.50
2024-02-07T18:07:14.835Z,96945.34
2024-02-07T18:10:40.000Z,96931.28
2024-02-07T18:14:01.309Z,96963.09
2024-02-07T18:17:21.819Z,96958.47
2024-02-07T18:20:36.896Z,96965.00
2024-02-07T18:23:49.561Z,96970.53
2024-02-07T18:26:57.317Z,96969.13
2024-02-07T18:30:07.951Z,96951.53
2024-02-07T18:33:19.229Z,96961.09
2024-02-07T18:36:35.183Z,96952.03
2024-02-07T18:39:52.013Z,96954.56
2024-02-07T18:43:07.645Z,96956.78
2024-02-07T18:46:42.451Z,96971.88
2024-02-07T18:50:03.741Z,96951.84
2024-02-07T18:57:44.800Z,96965.66
2024-02-07T19:01:10.178Z,96961.53
2024-02-07T19:08:51.022Z,96983.22
2024-02-07T19:12:19.522Z,96987.47
2024-02-07T19:16:00.076Z,96980.25
2024-02-07T19:20:01.916Z,96994.00
2024-02-07T19:24:32.005Z,96983.41
2024-02-07T19:28:36.226Z,96995.16
2024-02-07T19:32:47.097Z,96984.72
2024-02-07T19:36:31.980Z,96988.34
2024-02-07T19:40:59.978Z,96991.59
2024-02-07T19:45:12.003Z,96997.03
2024-02-07T19:48:38.405Z,97000.47
2024-02-07T19:52:02.169Z,96994.25
2024-02-07T19:55:29.834Z,96999.25
2024-02-07T20:04:02.440Z,97013.47
2024-02-07T20:08:13.155Z,97021.28
2024-02-07T20:17:14.699Z,97008.25
2024-02-07T20:21:21.210Z,97015.72
2024-02-07T20:24:35.852Z,97026.59
2024-02-07T20:27:48.059Z,97033.09
2024-02-07T20:30:56.366Z,97044.97
2024-02-07T20:34:04.409Z,97044.00
2024-02-07T20:37:12.997Z,97044.00
2024-02-07T20:40:21.026Z,97042.78
2024-02-07T20:43:32.598Z,97044.97
2024-02-07T20:46:40.573Z,97050.16
2024-02-07T20:49:48.888Z,97047.88
2024-02-07T20:53:16.859Z,97055.69
2024-02-07T21:01:38.974Z,97049.31
2024-02-07T21:05:12.951Z,97055.38
2024-02-07T21:08:42.707Z,97061.25
2024-02-07T21:12:09.704Z,97064.09
2024-02-07T21:15:40.512Z,97062.06
2024-02-07T21:19:09.842Z,97073.47
2024-02-07T21:23:08.565Z,97080.84
2024-02-07T21:26:55.116Z,97088.47
2024-02-07T21:30:42.941Z,97082.03
2024-02-07T21:38:45.194Z,97086.22
2024-02-07T21:41:53.700Z,97095.25
2024-02-07T21:45:04.057Z,97095.75
2024-02-07T21:48:12.257Z,97093.09
2024-02-07T21:51:23.335Z,97092.34
2024-02-07T21:54:30.743Z,97098.44
2024-02-07T21:57:39.150Z,97093.84
2024-02-07T22:00:46.527Z,97100.78
2024-02-07T22:03:54.783Z,97103.66
2024-02-07T22:07:07.428Z,97098.13
2024-02-07T22:10:15.886Z,97099.13
2024-02-07T22:13:24.529Z,97103.31
2024-02-07T22:16:35.828Z,97102.31
2024-02-07T22:19:43.904Z,97107.16
2024-02-07T22:22:55.798Z,97108.16
2024-02-07T22:26:11.406Z,97113.72
2024-02-07T22:29:44.876Z,97113.34
2024-02-07T22:33:42.533Z,97100.19
2024-02-07T22:37:37.537Z,97101.72
2024-02-07T22:41:17.342Z,97103.97
2024-02-07T22:44:25.657Z,97106.94
2024-02-07T22:47:32.918Z,97095.38
2024-02-07T22:50:41.304Z,97102.78
2024-02-07T22:53:50.911Z,97097.09
2024-02-07T22:57:04.043Z,97106.22
2024-02-07T23:00:16.630Z,97109.41
2024-02-07T23:03:25.111Z,97108.28
2024-02-07T23:06:37.499Z,97115.16
2024-02-07T23:10:11.778Z,97109.13
2024-02-07T23:14:02.264Z,97125.75
2024-02-07T23:22:10.440Z,97134.50
2024-02-07T23:25:23.306Z,97138.00
2024-02-07T23:28:31.388Z,97136.69
2024-02-07T23:31:46.389Z,97131.63
2024-02-07T23:34:53.512Z,97137.53
2024-02-07T23:38:02.580Z,97126.28
2024-02-07T23:41:10.941Z,97113.47
2024-02-07T23:44:20.920Z,97118.31
2024-02-07T23:47:30.711Z,97124.59
2024-02-07T23:50:39.217Z,97131.75
2024-02-07T23:54:03.389Z,97137.00
2024-02-07T23:57:45.214Z,97132.38
